createdAt,value
2023-08-11T00:08:29.444Z,81.5
2023-08-11T00:28:41.533Z,82
2023-08-11T00:38:47.603Z,82
2023-08-11T00:48:53.653Z,82
2023-08-11T00:58:59.700Z,82.5
2023-08-11T01:09:05.742Z,83
2023-08-11T01:29:17.836Z,84
2023-08-11T01:39:23.882Z,84
2023-08-11T01:49:29.939Z,84.5
2023-08-11T01:59:36.056Z,85.5
2023-08-11T02:09:42.250Z,85.5
2023-08-11T02:19:48.306Z,85.5
2023-08-11T02:29:54.418Z,86.5
2023-08-11T02:40:00.561Z,86.5
2023-08-11T02:50:06.685Z,87
2023-08-11T03:00:12.814Z,87
2023-08-11T03:10:17.917Z,86.5
2023-08-11T03:20:22.983Z,87
2023-08-11T03:30:29.026Z,87
2023-08-11T03:40:35.082Z,87.5
2023-08-11T03:50:41.139Z,87.5
2023-08-11T04:00:47.178Z,88
2023-08-11T04:10:53.228Z,87.5
2023-08-11T04:20:59.269Z,88
2023-08-11T04:31:05.311Z,88
2023-08-11T04:41:11.443Z,88
2023-08-11T04:51:17.416Z,88
2023-08-11T05:01:23.450Z,88
2023-08-11T05:11:29.501Z,88.5
2023-08-11T05:21:35.565Z,88
2023-08-11T05:31:40.610Z,87.5
2023-08-11T05:41:46.703Z,87.5
2023-08-11T05:51:52.719Z,87.5
2023-08-11T06:01:58.767Z,87
2023-08-11T06:22:10.849Z,86
2023-08-11T06:32:16.907Z,85
2023-08-11T06:42:21.979Z,84.5
2023-08-11T06:52:27.048Z,83.5
2023-08-11T07:02:33.109Z,82.5
2023-08-11T07:12:39.146Z,81.5
2023-08-11T07:22:45.192Z,79
2023-08-11T07:32:51.231Z,78
2023-08-11T07:42:57.289Z,76.5
2023-08-11T07:53:03.347Z,76
2023-08-11T08:03:09.373Z,75
2023-08-11T08:13:15.431Z,74
2023-08-11T08:23:21.490Z,71.5
2023-08-11T08:33:27.534Z,68.5
2023-08-11T08:43:33.568Z,67.5
2023-08-11T08:53:39.626Z,68
2023-08-11T09:03:45.669Z,66
2023-08-11T09:13:50.728Z,63.5
2023-08-11T09:23:56.771Z,63.5
2023-08-11T09:34:02.851Z,62
2023-08-11T09:44:08.865Z,60
2023-08-11T09:54:14.915Z,59
2023-08-11T10:04:20.988Z,55
2023-08-11T10:14:27.071Z,55
2023-08-11T10:24:33.058Z,56
2023-08-11T10:34:39.113Z,56.5
2023-08-11T10:44:45.157Z,55
2023-08-11T10:54:51.197Z,54.5
2023-08-11T11:04:57.252Z,53.5
2023-08-11T11:25:09.343Z,54.5
2023-08-11T11:35:14.413Z,53
2023-08-11T11:45:20.472Z,53
2023-08-11T11:55:26.516Z,51
2023-08-11T12:05:32.587Z,50.5
2023-08-11T12:15:38.604Z,49.5
2023-08-11T12:25:44.666Z,50.5
2023-08-11T12:35:50.709Z,50
2023-08-11T12:45:56.751Z,50
2023-08-11T12:56:02.816Z,48.5
2023-08-11T13:06:08.855Z,47.5
2023-08-11T13:16:14.910Z,45.5
2023-08-11T13:26:20.961Z,45.5
2023-08-11T13:36:27.003Z,44.5
2023-08-11T13:46:32.067Z,44.5
2023-08-11T13:56:38.119Z,43.5
2023-08-11T14:06:44.341Z,42
2023-08-11T14:16:50.229Z,40.5
2023-08-11T14:26:56.269Z,39.5
2023-08-11T14:37:02.326Z,39.5
2023-08-11T14:47:08.382Z,37.5
2023-08-11T14:57:14.788Z,39
2023-08-11T15:07:20.462Z,39.5
2023-08-11T15:17:26.522Z,39.5
2023-08-11T15:27:32.557Z,41.5
2023-08-11T15:37:38.624Z,44
2023-08-11T15:47:44.668Z,44
2023-08-11T15:57:49.733Z,44.5
2023-08-11T16:07:55.784Z,45
2023-08-11T16:18:01.825Z,47
2023-08-11T16:28:07.892Z,47
2023-08-11T16:38:13.956Z,48
2023-08-11T16:48:19.974Z,47
2023-08-11T16:58:26.029Z,49
2023-08-11T17:08:32.078Z,48
2023-08-11T17:18:38.114Z,50
2023-08-11T17:28:44.169Z,51
2023-08-11T17:38:50.231Z,52.5
2023-08-11T17:48:56.266Z,53.5
2023-08-11T17:59:02.334Z,54.5
2023-08-11T18:09:07.382Z,55.5
2023-08-11T18:19:13.516Z,56.5
2023-08-11T18:29:19.483Z,57.5
2023-08-11T18:39:25.541Z,59.5
2023-08-11T18:49:31.626Z,60.5
2023-08-11T18:59:37.658Z,62
2023-08-11T19:09:43.690Z,63
2023-08-11T19:19:49.727Z,63.5
2023-08-11T19:29:55.761Z,65
2023-08-11T19:40:01.863Z,66.5
2023-08-11T19:50:07.868Z,68
2023-08-11T20:00:13.924Z,69.5
2023-08-11T20:10:19.976Z,70
2023-08-11T20:20:25.042Z,70.5
2023-08-11T20:30:31.095Z,72
2023-08-11T20:40:37.122Z,72.5
2023-08-11T20:50:43.183Z,73
2023-08-11T21:00:49.232Z,73.5
2023-08-11T21:10:55.268Z,73
2023-08-11T21:21:01.324Z,73
2023-08-11T21:31:07.366Z,74
2023-08-11T21:41:13.524Z,74.5
2023-08-11T21:51:19.517Z,75
2023-08-11T22:01:25.514Z,75.5
2023-08-11T22:11:31.557Z,75.5
2023-08-11T22:21:37.617Z,75.5
2023-08-11T22:31:42.677Z,74.5
2023-08-11T22:41:48.723Z,75.5
2023-08-11T22:51:54.755Z,76.5
2023-08-11T23:02:00.816Z,78
2023-08-11T23:12:06.864Z,80
2023-08-11T23:22:12.919Z,81.5
2023-08-11T23:32:18.958Z,84
2023-08-11T23:42:25.004Z,86.5
2023-08-11T23:52:31.114Z,89.5
